Time;durP1;ratioP1;P1;durP2;ratioP2;P2;SDS_P1;SDS_P2;PMS_P1;PMS_P2;Temp;Humidity;BMP_temperature;BMP_pressure;BME280_temperature;BME280_humidity;BME280_pressure;Samples;Min_cycle;Max_cycle;Signal;HPM_P1;HPM_P2
2021/11/16 00:01:36;;;;;;;183.60;40.13;;;6.70;99.90;;;;;;5051456;28;20044;-52
2021/11/16 00:04:03;;;;;;;88.72;39.60;;;6.70;99.90;;;;;;4998354;28;20059;-52
2021/11/16 00:06:29;;;;;;;95.18;39.13;;;6.70;99.90;;;;;;5051473;28;20029;-51
2021/11/16 00:08:54;;;;;;;141.50;36.78;;;7.00;99.90;;;;;;5052178;28;20469;-49
2021/11/16 00:11:20;;;;;;;182.95;43.42;;;6.90;99.90;;;;;;5050864;28;20459;-52
2021/11/16 00:13:48;;;;;;;90.97;41.10;;;6.90;99.90;;;;;;5051533;28;20112;-51
2021/11/16 00:16:14;;;;;;;177.23;39.95;;;7.10;99.90;;;;;;5050635;28;20485;-51
2021/11/16 00:18:40;;;;;;;153.43;40.15;;;7.10;99.90;;;;;;5051013;28;20044;-49
2021/11/16 00:21:08;;;;;;;146.52;38.25;;;7.30;99.90;;;;;;4983151;28;20053;-51
2021/11/16 00:23:35;;;;;;;102.10;37.67;;;7.30;99.90;;;;;;5019745;28;20034;-49
2021/11/16 00:26:03;;;;;;;167.15;37.72;;;7.00;99.90;;;;;;4978444;28;20045;-51
2021/11/16 00:28:29;;;;;;;205.82;38.80;;;6.90;99.90;;;;;;5028127;28;20036;-48
2021/11/16 00:30:55;;;;;;;143.60;37.70;;;6.80;99.90;;;;;;5014969;28;20045;-48
2021/11/16 00:33:22;;;;;;;164.63;36.00;;;6.80;99.90;;;;;;5023842;28;20036;-50
2021/11/16 00:35:49;;;;;;;141.43;31.80;;;6.60;99.90;;;;;;5025231;28;20042;-49
2021/11/16 00:38:16;;;;;;;133.25;32.83;;;6.20;99.90;;;;;;5023486;28;20025;-49
2021/11/16 00:40:43;;;;;;;150.52;36.10;;;6.00;99.90;;;;;;5022507;28;20426;-52
2021/11/16 00:43:09;;;;;;;184.18;35.35;;;6.00;99.90;;;;;;4984649;28;20131;-48
2021/11/16 00:45:38;;;;;;;163.18;30.90;;;6.10;99.90;;;;;;4993538;28;20058;-51
2021/11/16 00:48:05;;;;;;;146.00;28.85;;;6.00;99.90;;;;;;5025255;28;20053;-48
2021/11/16 00:50:32;;;;;;;243.13;34.88;;;5.90;99.90;;;;;;5022060;28;20032;-49
2021/11/16 00:52:58;;;;;;;115.43;32.83;;;5.90;99.90;;;;;;5019872;28;20025;-52
2021/11/16 00:55:23;;;;;;;112.35;31.60;;;5.90;99.90;;;;;;5024760;28;20457;-50
2021/11/16 00:57:49;;;;;;;82.95;30.55;;;6.20;99.90;;;;;;5029547;28;20025;-50
2021/11/16 01:00:16;;;;;;;123.22;31.73;;;6.40;99.90;;;;;;4993195;28;20044;-50
2021/11/16 01:02:42;;;;;;;121.32;30.98;;;6.40;99.90;;;;;;5029819;28;20032;-50
2021/11/16 01:05:12;;;;;;;86.72;33.40;;;6.40;99.90;;;;;;5029479;28;20028;-50
2021/11/16 01:07:40;;;;;;;106.95;33.63;;;6.50;99.90;;;;;;4993057;28;20065;-53
2021/11/16 01:10:08;;;;;;;95.97;35.72;;;6.60;99.90;;;;;;5007472;28;20025;-49
2021/11/16 01:12:34;;;;;;;63.95;30.25;;;6.70;99.90;;;;;;4947283;28;20039;-51
2021/11/16 01:15:01;;;;;;;89.68;29.95;;;6.50;99.90;;;;;;4925200;29;20050;-53
2021/11/16 01:17:27;;;;;;;115.50;32.13;;;6.60;99.90;;;;;;4928578;29;20040;-49
2021/11/16 01:19:53;;;;;;;124.88;30.98;;;6.80;99.90;;;;;;4905172;29;20098;-49
2021/11/16 01:22:20;;;;;;;152.13;29.77;;;6.70;99.90;;;;;;4918460;29;20094;-53
2021/11/16 01:24:46;;;;;;;138.27;27.80;;;5.90;99.90;;;;;;4934306;29;20504;-50
2021/11/16 01:27:17;;;;;;;187.30;30.85;;;5.70;99.90;;;;;;4937978;29;20042;-52
2021/11/16 01:29:45;;;;;;;93.40;29.63;;;5.70;99.90;;;;;;4935408;28;20047;-51
2021/11/16 01:32:25;;;;;;;139.60;29.15;;;5.80;99.90;;;;;;4934386;28;20127;-51
2021/11/16 01:34:52;;;;;;;100.75;29.25;;;5.40;99.90;;;;;;4930965;29;20730;-49
2021/11/16 01:37:17;;;;;;;120.93;30.48;;;5.50;99.90;;;;;;4933525;29;20051;-50
2021/11/16 01:39:43;;;;;;;129.15;30.60;;;5.60;99.90;;;;;;4936393;29;20484;-50
2021/11/16 01:42:09;;;;;;;190.15;31.67;;;5.80;99.90;;;;;;4904889;28;20063;-49
2021/11/16 01:44:35;;;;;;;91.00;31.08;;;5.70;99.90;;;;;;4988232;28;20077;-51
2021/11/16 01:47:02;;;;;;;159.55;31.65;;;6.00;99.90;;;;;;5030303;28;20034;-49
2021/11/16 01:49:27;;;;;;;147.40;28.17;;;6.20;99.90;;;;;;5033318;28;20036;-52
2021/11/16 01:51:53;;;;;;;151.13;30.05;;;6.10;99.90;;;;;;4994869;28;20033;-51
2021/11/16 01:54:19;;;;;;;86.53;29.02;;;6.00;99.90;;;;;;5034236;28;20488;-50
2021/11/16 01:56:46;;;;;;;120.78;29.27;;;6.10;99.90;;;;;;5034411;28;20374;-51
2021/11/16 01:59:14;;;;;;;59.25;32.03;;;6.10;99.90;;;;;;5029481;28;20099;-51
2021/11/16 02:01:41;;;;;;;94.75;41.45;;;6.30;99.90;;;;;;5031734;28;20068;-52
2021/11/16 02:04:08;;;;;;;83.55;38.50;;;6.40;99.90;;;;;;4998365;28;20041;-52
2021/11/16 02:06:37;;;;;;;109.88;42.83;;;6.50;99.90;;;;;;5033313;28;20112;-50
2021/11/16 02:09:07;;;;;;;80.75;40.97;;;6.50;99.90;;;;;;5032709;28;20033;-52
2021/11/16 02:11:34;;;;;;;46.08;31.48;;;6.50;99.90;;;;;;5033499;28;20021;-52
2021/11/16 02:14:01;;;;;;;43.85;31.65;;;6.50;99.90;;;;;;5030888;28;20026;-50
2021/11/16 02:16:27;;;;;;;40.08;28.20;;;6.50;99.90;;;;;;5032999;28;20105;-48
2021/11/16 02:18:53;;;;;;;55.13;30.38;;;6.50;99.90;;;;;;5031738;28;20033;-49
2021/11/16 02:21:19;;;;;;;42.97;28.30;;;6.50;99.90;;;;;;5009198;28;20053;-51
2021/11/16 02:23:46;;;;;;;34.10;25.85;;;6.60;99.90;;;;;;5053537;28;20037;-51
2021/11/16 02:26:12;;;;;;;34.22;25.95;;;6.60;99.90;;;;;;5001546;28;20492;-53
2021/11/16 02:28:41;;;;;;;32.78;24.50;;;6.50;99.90;;;;;;5053405;28;20029;-50
2021/11/16 02:31:07;;;;;;;30.38;22.85;;;6.40;99.90;;;;;;5052955;28;20045;-48
2021/11/16 02:33:33;;;;;;;32.75;23.65;;;6.30;99.90;;;;;;5053774;28;20033;-48
2021/11/16 02:35:59;;;;;;;31.98;23.08;;;6.40;99.90;;;;;;5052821;28;20094;-50
2021/11/16 02:38:25;;;;;;;32.03;25.33;;;6.30;99.90;;;;;;5054103;28;20075;-51
2021/11/16 02:40:53;;;;;;;28.50;21.45;;;6.20;99.90;;;;;;5053123;28;20120;-52
2021/11/16 02:43:20;;;;;;;28.90;22.90;;;6.30;99.90;;;;;;5046846;28;20544;-52
2021/11/16 02:45:46;;;;;;;30.10;23.67;;;6.20;99.90;;;;;;5053107;28;20067;-49
2021/11/16 02:48:12;;;;;;;33.05;25.10;;;6.30;99.90;;;;;;5017642;28;20388;-51
2021/11/16 02:50:41;;;;;;;33.03;24.48;;;6.20;99.90;;;;;;5053015;28;20112;-53
2021/11/16 02:53:07;;;;;;;33.13;24.23;;;6.10;99.90;;;;;;5052324;28;20481;-52
2021/11/16 02:55:34;;;;;;;31.70;24.55;;;6.00;99.90;;;;;;5052977;28;20036;-53
2021/11/16 02:57:59;;;;;;;33.70;24.08;;;6.00;99.90;;;;;;5052668;28;20048;-53
2021/11/16 03:00:25;;;;;;;35.13;25.85;;;6.00;99.90;;;;;;5016570;28;20038;-52
2021/11/16 03:02:51;;;;;;;35.05;26.10;;;5.90;99.90;;;;;;5034834;28;20045;-51
2021/11/16 03:05:17;;;;;;;33.45;25.52;;;5.80;99.90;;;;;;5001612;28;20099;-51
2021/11/16 03:07:48;;;;;;;35.75;25.50;;;6.00;99.90;;;;;;4999208;28;20053;-50
2021/11/16 03:10:17;;;;;;;33.40;24.55;;;6.10;99.90;;;;;;5052927;28;20041;-51
2021/11/16 03:12:43;;;;;;;35.67;25.17;;;6.10;99.90;;;;;;5001703;28;20036;-48
2021/11/16 03:15:09;;;;;;;33.75;24.77;;;6.00;99.90;;;;;;5051719;28;20066;-49
2021/11/16 03:17:35;;;;;;;33.00;24.98;;;6.00;99.90;;;;;;5052419;28;20064;-53
2021/11/16 03:20:08;;;;;;;35.00;25.10;;;5.80;99.90;;;;;;5010558;28;20085;-52
2021/11/16 03:22:52;;;;;;;36.42;25.05;;;5.90;99.90;;;;;;4995730;28;20068;-50
2021/11/16 03:25:20;;;;;;;34.40;23.25;;;6.00;99.90;;;;;;5033907;28;20057;-51
2021/11/16 03:27:51;;;;;;;34.25;25.33;;;6.20;99.90;;;;;;5034444;28;20584;-52
2021/11/16 03:30:17;;;;;;;52.47;32.83;;;6.30;99.90;;;;;;5034531;28;20485;-52
2021/11/16 03:32:44;;;;;;;48.40;31.38;;;6.10;99.90;;;;;;5033618;28;20075;-52
2021/11/16 03:35:10;;;;;;;48.00;31.75;;;6.20;99.90;;;;;;4977133;28;20049;-49
2021/11/16 03:37:43;;;;;;;39.45;27.88;;;6.20;99.90;;;;;;5033370;28;20033;-50
2021/11/16 03:40:10;;;;;;;42.03;29.83;;;6.40;99.90;;;;;;5033701;28;20026;-49
2021/11/16 03:42:40;;;;;;;37.72;26.33;;;6.50;99.90;;;;;;5034192;28;20118;-51
2021/11/16 03:45:07;;;;;;;37.42;25.85;;;6.50;99.90;;;;;;5029824;28;20029;-49
2021/11/16 03:47:33;;;;;;;39.03;26.50;;;6.60;99.90;;;;;;4995510;28;20103;-50
2021/11/16 03:49:59;;;;;;;35.83;25.20;;;6.70;99.90;;;;;;5033218;28;20473;-49
2021/11/16 03:52:26;;;;;;;29.98;22.13;;;6.70;99.90;;;;;;5033298;28;20103;-51
2021/11/16 03:54:52;;;;;;;31.95;24.52;;;6.80;99.90;;;;;;5033831;28;20041;-49
2021/11/16 03:57:19;;;;;;;29.88;23.38;;;6.80;99.90;;;;;;5033467;28;20119;-53
2021/11/16 03:59:45;;;;;;;36.03;26.33;;;6.70;99.90;;;;;;4980119;28;20163;-50
2021/11/16 04:02:11;;;;;;;33.92;23.80;;;6.40;99.90;;;;;;4992271;28;20546;-50
2021/11/16 04:04:37;;;;;;;30.13;22.50;;;6.30;99.90;;;;;;4942732;28;20554;-50
2021/11/16 04:07:03;;;;;;;36.90;24.77;;;6.30;99.90;;;;;;4961665;28;20510;-50
2021/11/16 04:09:29;;;;;;;34.63;25.15;;;6.50;99.90;;;;;;4990053;28;20039;-49
2021/11/16 04:11:55;;;;;;;32.92;24.00;;;6.60;99.90;;;;;;4990520;28;20430;-52
2021/11/16 04:14:21;;;;;;;37.92;24.67;;;6.60;99.90;;;;;;4964456;28;20042;-51
2021/11/16 04:16:49;;;;;;;50.28;32.33;;;6.70;99.90;;;;;;4957943;28;20601;-51
2021/11/16 04:19:14;;;;;;;157.65;71.82;;;6.40;99.90;;;;;;4942221;28;20037;-49
2021/11/16 04:21:40;;;;;;;97.68;49.75;;;6.30;99.90;;;;;;4991511;28;20027;-51
2021/11/16 04:24:06;;;;;;;68.18;40.25;;;6.20;99.90;;;;;;4992008;28;20037;-52
2021/11/16 04:26:32;;;;;;;60.03;34.55;;;6.10;99.90;;;;;;4944267;28;20490;-49
2021/11/16 04:28:58;;;;;;;44.70;28.23;;;6.00;99.90;;;;;;4956531;28;20096;-49
2021/11/16 04:31:23;;;;;;;32.03;20.60;;;5.90;99.90;;;;;;4987402;28;20030;-52
2021/11/16 04:33:49;;;;;;;30.42;19.00;;;6.10;99.90;;;;;;4987167;28;20080;-51
2021/11/16 04:36:17;;;;;;;21.85;14.98;;;6.20;99.90;;;;;;4956111;28;20502;-48
2021/11/16 04:38:45;;;;;;;21.75;14.35;;;6.10;99.90;;;;;;4993393;28;20446;-52
2021/11/16 04:41:10;;;;;;;23.30;14.55;;;6.00;99.90;;;;;;5030417;28;20380;-52
2021/11/16 04:43:36;;;;;;;20.63;14.35;;;6.00;99.90;;;;;;5029874;28;20033;-52
2021/11/16 04:46:05;;;;;;;21.00;13.20;;;6.00;99.90;;;;;;4979901;28;20406;-51
2021/11/16 05:05:12;;;;;;;18.65;14.02;;;6.20;99.90;;;;;;4969738;28;20065;-51
2021/11/16 05:07:47;;;;;;;20.95;14.10;;;6.10;99.90;;;;;;4968025;28;20045;-49
2021/11/16 05:10:13;;;;;;;17.38;12.85;;;6.10;99.90;;;;;;4968177;28;20105;-49
2021/11/16 05:12:39;;;;;;;17.55;11.45;;;6.10;99.90;;;;;;4969941;28;20785;-51
2021/11/16 05:15:09;;;;;;;19.92;13.30;;;6.10;99.90;;;;;;4970009;28;20031;-48
2021/11/16 05:17:35;;;;;;;17.30;12.43;;;6.00;99.90;;;;;;4963120;28;20043;-51
2021/11/16 05:20:02;;;;;;;17.80;12.98;;;6.00;99.90;;;;;;4950781;28;20460;-49
2021/11/16 05:22:27;;;;;;;19.48;12.32;;;6.00;99.90;;;;;;4951479;29;20050;-50
2021/11/16 05:24:53;;;;;;;17.90;11.23;;;6.00;99.90;;;;;;4951065;28;20039;-48
2021/11/16 05:27:20;;;;;;;17.42;12.55;;;6.00;99.90;;;;;;4951160;28;20035;-52
2021/11/16 05:29:45;;;;;;;19.70;12.68;;;6.00;99.90;;;;;;4946233;28;20162;-52
2021/11/16 05:32:11;;;;;;;18.25;12.63;;;6.20;99.90;;;;;;4953692;28;20130;-51
2021/11/16 05:34:37;;;;;;;17.42;11.55;;;6.20;99.90;;;;;;4988521;28;20120;-51
2021/11/16 05:37:03;;;;;;;18.23;11.77;;;6.10;99.90;;;;;;4987965;28;20574;-51
2021/11/16 05:39:29;;;;;;;22.48;13.52;;;6.10;99.90;;;;;;4975755;28;20030;-50
2021/11/16 05:41:55;;;;;;;18.50;12.35;;;6.10;99.90;;;;;;4954885;28;20414;-52
2021/11/16 05:44:21;;;;;;;20.52;13.60;;;6.20;99.90;;;;;;4972661;28;20129;-49
2021/11/16 05:46:46;;;;;;;19.30;12.98;;;6.30;99.90;;;;;;4987128;28;20035;-51
2021/11/16 05:49:12;;;;;;;25.30;15.95;;;6.50;99.90;;;;;;4990830;28;20069;-52
2021/11/16 05:51:38;;;;;;;20.00;13.25;;;6.50;99.90;;;;;;5008593;28;20119;-48
2021/11/16 05:54:05;;;;;;;19.30;12.40;;;6.60;99.90;;;;;;5009624;28;20053;-50
2021/11/16 05:56:35;;;;;;;19.33;12.52;;;6.60;99.90;;;;;;5034137;28;20045;-50
2021/11/16 05:59:02;;;;;;;16.95;12.40;;;6.60;99.90;;;;;;4998771;28;20509;-52
2021/11/16 06:01:32;;;;;;;18.95;12.27;;;6.50;99.90;;;;;;5014942;28;20039;-53
2021/11/16 06:03:58;;;;;;;19.48;12.32;;;6.60;99.90;;;;;;4999316;28;20052;-52
2021/11/16 06:06:33;;;;;;;16.77;12.05;;;6.50;99.90;;;;;;5036097;28;20029;-51
2021/11/16 06:09:00;;;;;;;18.75;13.02;;;6.60;99.90;;;;;;5032318;28;20025;-52
2021/11/16 06:11:27;;;;;;;19.10;12.48;;;6.70;99.90;;;;;;5025766;28;20033;-51
2021/11/16 06:13:55;;;;;;;16.45;11.88;;;6.70;99.90;;;;;;5033139;28;20040;-53
2021/11/16 06:16:21;;;;;;;14.95;11.30;;;7.40;99.90;;;;;;4969187;28;20412;-46
2021/11/16 06:18:52;;;;;;;18.30;11.38;;;8.20;99.90;;;;;;4971051;28;20070;-52
2021/11/16 06:21:19;;;;;;;18.27;11.93;;;8.80;99.90;;;;;;4987699;28;20047;-54
2021/11/16 06:23:46;;;;;;;19.30;11.35;;;9.50;99.90;;;;;;4986213;28;20541;-53
2021/11/16 06:26:12;;;;;;;22.90;13.57;;;9.60;99.90;;;;;;4990183;28;20429;-56
2021/11/16 06:28:39;;;;;;;18.35;12.85;;;10.20;99.90;;;;;;4990457;28;20085;-55
2021/11/16 06:31:05;;;;;;;19.48;13.10;;;10.60;99.90;;;;;;4990986;28;20045;-56
2021/11/16 06:33:30;;;;;;;19.70;13.18;;;11.10;99.90;;;;;;4991954;28;20030;-53
2021/11/16 06:35:56;;;;;;;17.95;12.80;;;11.90;99.90;;;;;;4989230;28;20137;-52
2021/11/16 06:38:22;;;;;;;17.05;11.85;;;12.10;99.90;;;;;;4992904;28;20038;-54
2021/11/16 06:40:48;;;;;;;17.73;12.45;;;12.10;99.90;;;;;;4992276;28;20074;-53
2021/11/16 06:43:31;;;;;;;16.65;11.65;;;12.50;99.90;;;;;;4975032;28;20043;-55
2021/11/16 06:45:59;;;;;;;17.70;11.82;;;12.40;99.90;;;;;;4991976;28;20113;-58
2021/11/16 06:48:25;;;;;;;14.38;10.38;;;13.10;99.90;;;;;;5032098;28;20056;-53
2021/11/16 06:50:52;;;;;;;15.57;9.98;;;13.20;99.90;;;;;;5031534;28;20022;-55
2021/11/16 06:53:31;;;;;;;14.80;9.95;;;13.50;99.90;;;;;;5032426;28;20048;-53
2021/11/16 06:55:57;;;;;;;12.80;9.48;;;13.70;99.90;;;;;;5033516;28;20095;-56
2021/11/16 06:58:24;;;;;;;18.40;11.60;;;13.70;99.90;;;;;;5033185;28;20037;-52
2021/11/16 07:00:52;;;;;;;18.00;12.15;;;13.70;99.90;;;;;;5033440;28;20029;-51
2021/11/16 07:03:19;;;;;;;22.67;13.43;;;14.40;99.90;;;;;;5033625;28;20095;-50
2021/11/16 07:05:49;;;;;;;15.25;11.60;;;14.90;99.90;;;;;;5033589;28;20048;-54
2021/11/16 07:08:39;;;;;;;15.55;11.07;;;14.60;99.90;;;;;;5032772;28;20033;-53
2021/11/16 07:11:08;;;;;;;14.02;10.25;;;15.60;99.90;;;;;;5033094;28;20057;-54
2021/11/16 07:13:35;;;;;;;18.80;11.65;;;16.00;99.90;;;;;;4998455;28;20042;-54
2021/11/16 07:16:10;;;;;;;15.52;11.02;;;16.10;99.90;;;;;;4998400;28;20068;-57
2021/11/16 07:18:49;;;;;;;12.90;10.80;;;15.10;99.90;;;;;;5033279;28;20072;-53
2021/11/16 07:21:15;;;;;;;16.98;12.40;;;15.30;99.90;;;;;;5030468;28;20056;-54
2021/11/16 07:23:41;;;;;;;14.70;11.75;;;15.60;99.90;;;;;;5033182;28;20029;-55
2021/11/16 07:26:16;;;;;;;15.73;11.35;;;15.50;99.90;;;;;;5031747;28;20039;-53
2021/11/16 07:28:49;;;;;;;16.30;12.13;;;15.80;99.90;;;;;;5032811;28;20521;-53
2021/11/16 07:31:22;;;;;;;13.68;10.98;;;16.30;99.90;;;;;;5032920;28;20030;-57
2021/11/16 07:33:50;;;;;;;18.30;12.43;;;15.30;99.90;;;;;;5032962;28;20071;-56
2021/11/16 07:36:17;;;;;;;16.05;12.43;;;15.70;99.90;;;;;;5031205;28;20037;-54
2021/11/16 07:38:48;;;;;;;16.35;11.20;;;16.60;99.90;;;;;;5033166;28;20047;-56
2021/11/16 07:41:21;;;;;;;14.23;10.35;;;15.80;99.90;;;;;;5032238;28;20030;-54
2021/11/16 07:43:48;;;;;;;11.68;10.20;;;15.50;99.90;;;;;;5032628;28;20038;-56
2021/11/16 07:46:13;;;;;;;13.75;12.32;;;14.90;99.90;;;;;;5032673;28;20108;-54
2021/11/16 07:48:41;;;;;;;16.02;14.32;;;15.50;99.90;;;;;;5032707;28;20108;-54
2021/11/16 07:51:13;;;;;;;14.80;11.80;;;15.70;99.90;;;;;;5033391;28;20091;-56
2021/11/16 07:53:47;;;;;;;10.70;8.90;;;14.90;99.90;;;;;;5032608;28;20068;-55
2021/11/16 07:56:18;;;;;;;16.77;7.85;;;14.20;99.90;;;;;;5032404;28;20486;-56
2021/11/16 07:58:56;;;;;;;10.57;7.72;;;13.70;99.90;;;;;;5025927;28;20033;-55
2021/11/16 08:01:37;;;;;;;13.27;8.02;;;13.30;99.90;;;;;;5031990;28;20053;-51
2021/11/16 08:04:20;;;;;;;13.82;10.27;;;13.30;99.90;;;;;;5028613;28;20088;-56
2021/11/16 08:14:44;;;;;;;12.35;9.63;;;14.00;99.90;;;;;;4914751;29;20492;-55
2021/11/16 08:17:10;;;;;;;13.98;10.20;;;14.30;99.90;;;;;;4914618;29;20208;-55
2021/11/16 08:19:38;;;;;;;16.02;10.85;;;14.50;99.90;;;;;;4913496;29;20087;-52
2021/11/16 08:22:10;;;;;;;12.80;10.35;;;14.30;99.90;;;;;;4913058;29;20063;-53
2021/11/16 08:24:39;;;;;;;11.43;8.57;;;14.80;99.90;;;;;;4915504;29;20073;-56
2021/11/16 08:27:14;;;;;;;12.82;9.75;;;13.60;99.90;;;;;;4913359;29;20048;-54
2021/11/16 08:29:43;;;;;;;12.65;9.55;;;14.60;99.90;;;;;;4914668;29;20575;-52
2021/11/16 08:32:19;;;;;;;13.85;9.65;;;14.20;99.90;;;;;;4893561;29;20079;-51
2021/11/16 08:34:49;;;;;;;15.15;10.70;;;14.00;99.90;;;;;;4898166;29;20044;-47
2021/11/16 08:37:16;;;;;;;18.42;13.15;;;14.40;99.90;;;;;;4905027;29;20044;-53
2021/11/16 08:39:43;;;;;;;13.63;10.57;;;14.30;99.90;;;;;;4933058;29;20055;-51
2021/11/16 08:42:21;;;;;;;11.07;8.45;;;14.50;99.90;;;;;;4932139;29;20106;-48
2021/11/16 08:44:54;;;;;;;15.32;10.95;;;14.50;99.70;;;;;;4931724;29;20043;-47
2021/11/16 08:47:25;;;;;;;12.52;8.98;;;15.00;99.90;;;;;;5001299;28;20034;-48
2021/11/16 08:49:51;;;;;;;11.13;9.55;;;14.10;99.90;;;;;;5013462;28;20037;-47
2021/11/16 08:52:17;;;;;;;11.77;9.43;;;13.90;99.90;;;;;;5012850;28;20030;-50
2021/11/16 08:55:22;;;;;;;14.68;11.07;;;13.30;99.90;;;;;;5012854;28;20042;-55
2021/11/16 08:57:51;;;;;;;12.23;9.10;;;13.10;99.90;;;;;;5013667;28;20046;-55
2021/11/16 09:00:37;;;;;;;13.07;11.93;;;13.60;99.90;;;;;;4981938;28;20037;-57
2021/11/16 09:03:15;;;;;;;14.10;12.13;;;13.50;99.90;;;;;;5032501;28;20034;-53
2021/11/16 09:05:47;;;;;;;11.32;10.38;;;13.60;99.90;;;;;;5030861;28;20052;-53
2021/11/16 09:08:14;;;;;;;;;;;14.10;99.90;;;;;;5005420;28;20052;-53
2021/11/16 09:10:43;;;;;;;20.02;16.00;;;14.30;99.90;;;;;;4989374;28;20024;-57
2021/11/16 09:13:13;;;;;;;15.07;13.30;;;15.80;99.90;;;;;;5021842;28;20037;-50
2021/11/16 09:15:41;;;;;;;14.80;13.40;;;;;;;;;;5025385;28;20034;-55
2021/11/16 09:18:14;;;;;;;13.73;12.32;;;15.00;99.90;;;;;;5027641;28;20108;-49
2021/11/16 09:20:42;;;;;;;13.95;12.75;;;15.30;99.20;;;;;;4992743;28;20057;-54
2021/11/16 09:23:08;;;;;;;17.15;15.60;;;15.90;98.70;;;;;;5027204;28;20017;-51
2021/11/16 09:25:37;;;;;;;16.85;13.30;;;15.50;98.20;;;;;;4970225;28;20039;-55
2021/11/16 09:28:35;;;;;;;13.85;12.48;;;14.90;99.20;;;;;;4986596;28;20499;-56
2021/11/16 09:31:24;;;;;;;16.27;14.63;;;15.30;99.20;;;;;;4987906;28;20491;-51
2021/11/16 09:33:52;;;;;;;17.35;15.88;;;15.40;99.50;;;;;;4982890;28;20081;-59
2021/11/16 09:36:38;;;;;;;17.80;15.90;;;14.50;99.40;;;;;;4950717;28;20039;-55
2021/11/16 09:39:18;;;;;;;12.60;10.00;;;15.20;99.80;;;;;;4974272;28;20038;-50
2021/11/16 09:42:11;;;;;;;17.75;14.57;;;14.70;99.90;;;;;;4985233;28;20088;-54
2021/11/16 09:44:45;;;;;;;18.90;16.63;;;15.20;99.90;;;;;;4982653;28;20049;-53
2021/11/16 09:47:29;;;;;;;12.98;9.15;;;15.30;99.60;;;;;;4982700;28;20087;-53
2021/11/16 09:49:59;;;;;;;15.90;12.75;;;14.60;99.90;;;;;;4987725;28;20034;-56
2021/11/16 09:52:33;;;;;;;15.90;10.63;;;;;;;;;;4986130;28;20162;-57
2021/11/16 09:55:03;;;;;;;13.38;6.72;;;14.40;99.90;;;;;;4985693;28;20034;-52
2021/11/16 09:57:41;;;;;;;10.23;7.43;;;13.00;99.90;;;;;;5021271;28;20079;-53
2021/11/16 10:00:17;;;;;;;13.05;8.10;;;12.70;99.90;;;;;;4991596;28;20037;-52
2021/11/16 10:02:47;;;;;;;11.15;6.47;;;12.50;99.90;;;;;;4984435;28;20180;-51
2021/11/16 10:05:21;;;;;;;12.20;8.40;;;12.50;99.90;;;;;;4991036;28;20093;-51
2021/11/16 10:07:52;;;;;;;12.45;9.48;;;12.30;99.90;;;;;;4991695;28;20053;-51
2021/11/16 10:10:20;;;;;;;17.60;11.77;;;12.40;99.90;;;;;;4985251;28;20034;-53
2021/11/16 10:12:51;;;;;;;16.15;14.75;;;13.50;99.90;;;;;;4985993;28;20431;-52
2021/11/16 10:15:20;;;;;;;12.63;7.25;;;13.70;99.90;;;;;;4987685;28;20038;-52
2021/11/16 10:17:47;;;;;;;10.68;6.95;;;13.50;99.90;;;;;;4992055;28;20039;-52
2021/11/16 10:20:19;;;;;;;23.13;17.00;;;13.30;99.90;;;;;;4990423;28;20051;-51
2021/11/16 10:22:50;;;;;;;15.55;13.27;;;14.40;99.90;;;;;;4988800;28;20469;-52
2021/11/16 10:25:22;;;;;;;13.60;12.25;;;14.70;99.90;;;;;;4990232;28;20893;-51
2021/11/16 10:27:51;;;;;;;14.27;10.75;;;14.50;99.90;;;;;;4969423;28;20399;-51
2021/11/16 10:30:19;;;;;;;13.98;10.65;;;14.40;99.90;;;;;;4973402;28;20454;-51
2021/11/16 10:33:07;;;;;;;12.98;9.82;;;14.00;99.90;;;;;;4960628;28;20091;-51
2021/11/16 10:35:34;;;;;;;14.80;11.38;;;14.00;99.90;;;;;;5011558;28;20046;-51
2021/11/16 10:38:03;;;;;;;16.13;14.55;;;13.60;99.90;;;;;;5012523;28;20034;-52
2021/11/16 10:40:30;;;;;;;14.57;13.07;;;14.40;99.90;;;;;;5012058;28;20486;-51
2021/11/16 10:42:58;;;;;;;14.90;13.55;;;;;;;;;;4971440;28;20141;-52
2021/11/16 10:45:27;;;;;;;10.60;6.93;;;15.60;99.90;;;;;;4939528;28;20039;-51
2021/11/16 10:48:01;;;;;;;14.23;9.30;;;15.00;99.90;;;;;;4967520;28;20043;-51
2021/11/16 10:50:30;;;;;;;11.90;8.68;;;14.70;99.90;;;;;;4941046;28;20428;-51
2021/11/16 10:53:06;;;;;;;12.25;7.70;;;14.20;99.90;;;;;;4972805;28;20524;-51
2021/11/16 10:55:48;;;;;;;13.82;9.13;;;14.00;99.90;;;;;;4924510;28;20094;-51
2021/11/16 10:58:21;;;;;;;10.05;8.10;;;14.10;99.90;;;;;;4966272;28;20062;-51
2021/11/16 11:01:13;;;;;;;14.05;9.75;;;14.20;99.90;;;;;;4950984;28;20054;-51
2021/11/16 11:03:44;;;;;;;;;;;14.20;99.90;;;;;;4913597;29;20532;-52
2021/11/16 11:06:14;;;;;;;8.50;6.20;;;13.70;99.90;;;;;;4915040;29;19910;-49
2021/11/16 11:08:53;;;;;;;10.63;6.63;;;;;;;;;;4915011;29;20060;-48
2021/11/16 11:11:19;;;;;;;12.40;7.45;;;;;;;;;;4896021;29;20099;-52
2021/11/16 11:13:47;;;;;;;16.58;11.20;;;13.00;99.90;;;;;;4904268;29;20681;-52
2021/11/16 11:16:15;;;;;;;15.10;9.30;;;13.10;99.90;;;;;;4899252;29;20056;-51
2021/11/16 11:18:45;;;;;;;13.27;10.48;;;13.20;99.90;;;;;;4914442;29;20040;-51
2021/11/16 11:21:23;;;;;;;17.52;10.93;;;;;;;;;;4930578;29;20044;-52
2021/11/16 11:23:53;;;;;;;9.25;5.85;;;13.00;99.90;;;;;;4934049;29;20190;-52
2021/11/16 11:29:37;;;;;;;12.35;8.50;;;13.10;99.90;;;;;;4933946;29;20078;-51
2021/11/16 11:32:03;;;;;;;17.25;9.80;;;;;;;;;;4928525;29;20058;-50
2021/11/16 11:34:36;;;;;;;14.27;11.02;;;;;;;;;;4933666;29;20646;-51
2021/11/16 11:37:07;;;;;;;11.80;6.80;;;;;;;;;;4934882;29;20051;-51
2021/11/16 11:39:34;;;;;;;14.30;9.90;;;;;;;;;;4937132;28;20076;-50
2021/11/16 11:42:00;;;;;;;7.38;5.13;;;14.20;99.90;;;;;;4974644;28;20107;-51
2021/11/16 11:44:27;;;;;;;12.75;8.65;;;13.70;99.90;;;;;;5025155;28;20482;-51
2021/11/16 11:46:58;;;;;;;7.75;5.68;;;13.40;99.90;;;;;;4975877;28;20046;-49
2021/11/16 11:49:25;;;;;;;12.75;9.30;;;;;;;;;;5027566;28;20450;-55
2021/11/16 11:51:52;;;;;;;13.00;7.97;;;13.00;99.90;;;;;;5027415;28;20036;-60
2021/11/16 11:54:18;;;;;;;10.40;7.10;;;13.00;99.90;;;;;;5032630;28;20502;-54
2021/11/16 11:56:45;;;;;;;19.05;11.65;;;12.90;99.90;;;;;;4980550;28;20069;-54
2021/11/16 11:59:13;;;;;;;14.07;7.28;;;13.10;99.90;;;;;;5027804;28;20575;-55
2021/11/16 12:01:42;;;;;;;18.75;10.95;;;13.00;99.90;;;;;;4978822;28;20048;-54
2021/11/16 12:04:12;;;;;;;14.18;7.82;;;12.80;99.90;;;;;;4980786;28;20042;-51
2021/11/16 12:06:39;;;;;;;25.08;14.35;;;12.90;99.90;;;;;;5032194;28;20068;-51
2021/11/16 12:09:05;;;;;;;17.67;10.68;;;13.10;99.90;;;;;;4997726;28;20121;-52
2021/11/16 12:11:31;;;;;;;14.82;9.30;;;13.10;99.90;;;;;;5032178;28;20629;-50
2021/11/16 12:14:02;;;;;;;19.83;10.20;;;13.20;99.90;;;;;;5030744;28;20056;-49
2021/11/16 12:16:37;;;;;;;14.55;10.75;;;13.20;99.90;;;;;;5020024;28;20044;-52
2021/11/16 12:19:09;;;;;;;17.23;11.63;;;13.30;99.90;;;;;;5027259;28;20075;-53
2021/11/16 12:21:38;;;;;;;10.70;7.82;;;13.30;99.90;;;;;;5028598;28;20450;-57
2021/11/16 12:24:29;;;;;;;9.57;6.43;;;13.30;99.90;;;;;;4994355;28;20045;-49
2021/11/16 12:27:07;;;;;;;10.05;8.10;;;13.10;99.90;;;;;;5032597;28;20040;-51
2021/11/16 12:29:45;;;;;;;16.38;11.52;;;13.10;99.90;;;;;;4963624;28;20133;-54
2021/11/16 12:32:32;;;;;;;17.35;11.95;;;13.10;99.90;;;;;;4956680;28;20038;-53
2021/11/16 12:35:12;;;;;;;19.30;10.95;;;13.10;99.90;;;;;;4920441;28;20057;-52
2021/11/16 12:37:42;;;;;;;13.95;10.35;;;;;;;;;;4938369;29;20047;-51
2021/11/16 12:40:11;;;;;;;13.23;7.75;;;;;;;;;;4939515;29;20043;-55
2021/11/16 12:42:38;;;;;;;15.50;10.98;;;;;;;;;;4903997;29;20136;-54
2021/11/16 12:45:10;;;;;;;14.07;9.40;;;14.20;99.90;;;;;;4942672;29;20047;-49
2021/11/16 12:47:55;;;;;;;14.52;10.15;;;;;;;;;;4940112;29;20464;-51
2021/11/16 12:50:23;;;;;;;14.80;9.27;;;14.40;99.90;;;;;;4913657;29;20035;-52
2021/11/16 12:52:51;;;;;;;13.32;8.40;;;13.30;99.90;;;;;;4887819;29;20078;-51
2021/11/16 12:55:24;;;;;;;15.45;10.82;;;13.10;99.90;;;;;;4935041;29;20052;-51
2021/11/16 12:57:50;;;;;;;12.35;9.93;;;13.20;99.90;;;;;;4943832;29;20448;-57
2021/11/16 13:00:17;;;;;;;11.32;7.88;;;;;;;;;;4966429;28;20045;-53
2021/11/16 13:02:48;;;;;;;16.13;11.00;;;13.00;99.90;;;;;;4973870;28;20786;-55
2021/11/16 13:05:29;;;;;;;13.05;8.90;;;13.10;99.90;;;;;;4988544;28;20049;-57
2021/11/16 13:07:57;;;;;;;12.02;5.18;;;13.00;99.90;;;;;;5000879;28;20029;-55
2021/11/16 13:10:29;;;;;;;8.57;5.20;;;12.60;99.90;;;;;;5032149;28;20029;-52
2021/11/16 13:13:03;;;;;;;8.43;6.60;;;12.50;99.90;;;;;;5030734;28;20104;-53
2021/11/16 13:15:31;;;;;;;9.65;6.10;;;12.80;99.90;;;;;;5032282;28;20627;-50
2021/11/16 13:18:13;;;;;;;9.27;6.97;;;13.00;99.90;;;;;;5031933;28;20037;-52